sensor_id;sensor_type;location;lat;lon;timestamp;P1;durP1;ratioP1;P2;durP2;ratioP2
4742;SDS011;24293;48.154;7.748;2022-09-21T00:00:11;3.33;;;2.03;;
4742;SDS011;24293;48.154;7.748;2022-09-21T00:02:37;8.23;;;3.30;;
4742;SDS011;24293;48.154;7.748;2022-09-21T00:05:04;6.83;;;2.70;;
4742;SDS011;24293;48.154;7.748;2022-09-21T00:07:31;6.97;;;3.67;;
4742;SDS011;24293;48.154;7.748;2022-09-21T00:09:58;10.33;;;3.13;;
4742;SDS011;24293;48.154;7.748;2022-09-21T00:12:24;8.73;;;2.80;;
4742;SDS011;24293;48.154;7.748;2022-09-21T00:14:52;7.03;;;2.47;;
4742;SDS011;24293;48.154;7.748;2022-09-21T00:17:20;4.40;;;2.33;;
4742;SDS011;24293;48.154;7.748;2022-09-21T00:19:47;4.10;;;2.57;;
4742;SDS011;24293;48.154;7.748;2022-09-21T00:22:13;6.63;;;2.73;;
4742;SDS011;24293;48.154;7.748;2022-09-21T00:24:39;9.30;;;2.73;;
4742;SDS011;24293;48.154;7.748;2022-09-21T00:27:06;10.90;;;3.43;;
4742;SDS011;24293;48.154;7.748;2022-09-21T00:29:32;6.93;;;2.70;;
4742;SDS011;24293;48.154;7.748;2022-09-21T00:32:01;6.27;;;2.43;;
4742;SDS011;24293;48.154;7.748;2022-09-21T00:34:27;5.93;;;2.30;;
4742;SDS011;24293;48.154;7.748;2022-09-21T00:36:54;5.87;;;2.40;;
4742;SDS011;24293;48.154;7.748;2022-09-21T00:39:20;4.23;;;1.90;;
4742;SDS011;24293;48.154;7.748;2022-09-21T00:41:47;5.87;;;2.03;;
4742;SDS011;24293;48.154;7.748;2022-09-21T00:47:02;7.23;;;2.60;;
4742;SDS011;24293;48.154;7.748;2022-09-21T00:49:29;6.60;;;2.40;;
4742;SDS011;24293;48.154;7.748;2022-09-21T00:51:58;6.97;;;2.53;;
4742;SDS011;24293;48.154;7.748;2022-09-21T00:54:27;3.70;;;2.40;;
4742;SDS011;24293;48.154;7.748;2022-09-21T00:56:54;3.90;;;2.10;;
4742;SDS011;24293;48.154;7.748;2022-09-21T00:59:25;5.73;;;2.47;;
4742;SDS011;24293;48.154;7.748;2022-09-21T01:01:52;4.47;;;2.73;;
4742;SDS011;24293;48.154;7.748;2022-09-21T01:04:20;7.60;;;2.87;;
4742;SDS011;24293;48.154;7.748;2022-09-21T01:06:46;6.70;;;3.50;;
4742;SDS011;24293;48.154;7.748;2022-09-21T01:09:14;9.40;;;2.90;;
4742;SDS011;24293;48.154;7.748;2022-09-21T01:11:42;4.50;;;2.70;;
4742;SDS011;24293;48.154;7.748;2022-09-21T01:16:55;15.53;;;3.90;;
4742;SDS011;24293;48.154;7.748;2022-09-21T01:19:36;7.60;;;3.00;;
4742;SDS011;24293;48.154;7.748;2022-09-21T01:22:09;7.50;;;3.50;;
4742;SDS011;24293;48.154;7.748;2022-09-21T01:24:50;6.47;;;3.77;;
4742;SDS011;24293;48.154;7.748;2022-09-21T01:27:30;5.80;;;3.00;;
4742;SDS011;24293;48.154;7.748;2022-09-21T01:30:00;9.47;;;3.63;;
4742;SDS011;24293;48.154;7.748;2022-09-21T01:32:28;11.23;;;4.13;;
4742;SDS011;24293;48.154;7.748;2022-09-21T01:34:58;5.53;;;2.77;;
4742;SDS011;24293;48.154;7.748;2022-09-21T01:37:30;9.87;;;3.20;;
4742;SDS011;24293;48.154;7.748;2022-09-21T01:39:58;7.10;;;3.33;;
4742;SDS011;24293;48.154;7.748;2022-09-21T01:42:26;10.00;;;3.17;;
4742;SDS011;24293;48.154;7.748;2022-09-21T01:44:54;4.90;;;2.80;;
4742;SDS011;24293;48.154;7.748;2022-09-21T01:47:22;9.40;;;2.90;;
4742;SDS011;24293;48.154;7.748;2022-09-21T01:49:51;5.20;;;2.93;;
4742;SDS011;24293;48.154;7.748;2022-09-21T01:52:19;7.80;;;3.27;;
4742;SDS011;24293;48.154;7.748;2022-09-21T01:54:48;3.60;;;2.10;;
4742;SDS011;24293;48.154;7.748;2022-09-21T01:57:23;4.77;;;2.63;;
4742;SDS011;24293;48.154;7.748;2022-09-21T01:59:51;7.67;;;3.10;;
4742;SDS011;24293;48.154;7.748;2022-09-21T02:02:19;4.13;;;2.40;;
4742;SDS011;24293;48.154;7.748;2022-09-21T02:04:49;5.70;;;3.20;;
4742;SDS011;24293;48.154;7.748;2022-09-21T02:07:16;11.13;;;3.10;;
4742;SDS011;24293;48.154;7.748;2022-09-21T02:09:43;4.73;;;2.67;;
4742;SDS011;24293;48.154;7.748;2022-09-21T02:12:11;6.23;;;3.10;;
4742;SDS011;24293;48.154;7.748;2022-09-21T02:14:37;6.70;;;3.10;;
4742;SDS011;24293;48.154;7.748;2022-09-21T02:17:04;7.60;;;3.00;;
4742;SDS011;24293;48.154;7.748;2022-09-21T02:19:37;5.90;;;3.23;;
4742;SDS011;24293;48.154;7.748;2022-09-21T02:22:08;5.40;;;2.70;;
4742;SDS011;24293;48.154;7.748;2022-09-21T02:24:37;4.40;;;2.77;;
4742;SDS011;24293;48.154;7.748;2022-09-21T02:27:06;4.10;;;2.47;;
4742;SDS011;24293;48.154;7.748;2022-09-21T02:29:39;5.20;;;2.70;;
4742;SDS011;24293;48.154;7.748;2022-09-21T02:32:08;7.40;;;2.83;;
4742;SDS011;24293;48.154;7.748;2022-09-21T02:34:36;9.03;;;2.93;;
4742;SDS011;24293;48.154;7.748;2022-09-21T02:37:08;5.33;;;2.40;;
4742;SDS011;24293;48.154;7.748;2022-09-21T02:39:37;12.50;;;2.77;;
4742;SDS011;24293;48.154;7.748;2022-09-21T02:42:08;8.30;;;3.60;;
4742;SDS011;24293;48.154;7.748;2022-09-21T02:44:37;6.73;;;3.10;;
4742;SDS011;24293;48.154;7.748;2022-09-21T02:47:06;8.37;;;3.67;;
4742;SDS011;24293;48.154;7.748;2022-09-21T02:49:36;9.73;;;3.10;;
4742;SDS011;24293;48.154;7.748;2022-09-21T02:52:03;7.73;;;3.30;;
4742;SDS011;24293;48.154;7.748;2022-09-21T02:54:33;6.73;;;3.17;;
4742;SDS011;24293;48.154;7.748;2022-09-21T02:57:02;6.90;;;3.80;;
4742;SDS011;24293;48.154;7.748;2022-09-21T02:59:29;5.83;;;2.93;;
4742;SDS011;24293;48.154;7.748;2022-09-21T03:01:56;6.80;;;3.17;;
4742;SDS011;24293;48.154;7.748;2022-09-21T03:04:22;5.60;;;3.03;;
4742;SDS011;24293;48.154;7.748;2022-09-21T03:06:49;6.20;;;2.87;;
4742;SDS011;24293;48.154;7.748;2022-09-21T03:09:16;7.27;;;4.07;;
4742;SDS011;24293;48.154;7.748;2022-09-21T03:11:44;7.90;;;3.20;;
4742;SDS011;24293;48.154;7.748;2022-09-21T03:14:10;6.63;;;3.63;;
4742;SDS011;24293;48.154;7.748;2022-09-21T03:16:37;6.93;;;3.57;;
4742;SDS011;24293;48.154;7.748;2022-09-21T03:19:03;9.00;;;4.20;;
4742;SDS011;24293;48.154;7.748;2022-09-21T03:21:30;8.03;;;3.27;;
4742;SDS011;24293;48.154;7.748;2022-09-21T03:23:56;6.93;;;3.30;;
4742;SDS011;24293;48.154;7.748;2022-09-21T03:26:23;5.23;;;2.80;;
4742;SDS011;24293;48.154;7.748;2022-09-21T03:28:51;5.43;;;3.10;;
4742;SDS011;24293;48.154;7.748;2022-09-21T03:31:18;9.13;;;3.70;;
4742;SDS011;24293;48.154;7.748;2022-09-21T03:33:45;4.57;;;3.40;;
4742;SDS011;24293;48.154;7.748;2022-09-21T03:36:11;5.73;;;3.40;;
4742;SDS011;24293;48.154;7.748;2022-09-21T03:38:38;6.37;;;3.00;;
4742;SDS011;24293;48.154;7.748;2022-09-21T03:41:04;6.27;;;3.10;;
4742;SDS011;24293;48.154;7.748;2022-09-21T03:43:31;4.87;;;2.80;;
4742;SDS011;24293;48.154;7.748;2022-09-21T03:45:59;10.70;;;2.90;;
4742;SDS011;24293;48.154;7.748;2022-09-21T03:48:25;7.00;;;3.37;;
4742;SDS011;24293;48.154;7.748;2022-09-21T03:50:52;4.43;;;2.60;;
4742;SDS011;24293;48.154;7.748;2022-09-21T03:53:18;4.70;;;3.03;;
4742;SDS011;24293;48.154;7.748;2022-09-21T03:55:45;5.20;;;3.00;;
4742;SDS011;24293;48.154;7.748;2022-09-21T03:58:11;8.10;;;3.57;;
4742;SDS011;24293;48.154;7.748;2022-09-21T04:00:38;4.83;;;3.10;;
4742;SDS011;24293;48.154;7.748;2022-09-21T04:03:05;5.43;;;2.37;;
4742;SDS011;24293;48.154;7.748;2022-09-21T04:05:32;8.57;;;2.83;;
4742;SDS011;24293;48.154;7.748;2022-09-21T04:07:59;6.27;;;2.93;;
4742;SDS011;24293;48.154;7.748;2022-09-21T04:10:26;5.70;;;3.20;;
4742;SDS011;24293;48.154;7.748;2022-09-21T04:12:57;11.57;;;2.80;;
4742;SDS011;24293;48.154;7.748;2022-09-21T04:15:25;11.13;;;4.20;;
4742;SDS011;24293;48.154;7.748;2022-09-21T04:17:52;7.33;;;3.47;;
4742;SDS011;24293;48.154;7.748;2022-09-21T04:20:20;8.40;;;3.50;;
4742;SDS011;24293;48.154;7.748;2022-09-21T04:22:46;11.40;;;3.80;;
4742;SDS011;24293;48.154;7.748;2022-09-21T04:25:13;4.50;;;3.20;;
4742;SDS011;24293;48.154;7.748;2022-09-21T04:27:40;3.97;;;2.67;;
4742;SDS011;24293;48.154;7.748;2022-09-21T04:30:07;5.57;;;3.20;;
4742;SDS011;24293;48.154;7.748;2022-09-21T04:32:33;4.40;;;2.97;;
4742;SDS011;24293;48.154;7.748;2022-09-21T04:35:00;7.57;;;2.97;;
4742;SDS011;24293;48.154;7.748;2022-09-21T04:37:28;7.93;;;2.93;;
4742;SDS011;24293;48.154;7.748;2022-09-21T04:39:54;5.67;;;2.70;;
4742;SDS011;24293;48.154;7.748;2022-09-21T04:42:21;7.77;;;3.50;;
4742;SDS011;24293;48.154;7.748;2022-09-21T04:44:47;4.60;;;2.80;;
4742;SDS011;24293;48.154;7.748;2022-09-21T04:47:14;13.17;;;3.33;;
4742;SDS011;24293;48.154;7.748;2022-09-21T04:49:40;5.43;;;2.87;;
4742;SDS011;24293;48.154;7.748;2022-09-21T04:52:06;4.30;;;2.60;;
4742;SDS011;24293;48.154;7.748;2022-09-21T04:54:34;7.03;;;2.77;;
4742;SDS011;24293;48.154;7.748;2022-09-21T04:57:01;5.00;;;2.70;;
4742;SDS011;24293;48.154;7.748;2022-09-21T04:59:27;7.87;;;3.20;;
4742;SDS011;24293;48.154;7.748;2022-09-21T05:01:54;5.83;;;3.07;;
4742;SDS011;24293;48.154;7.748;2022-09-21T05:04:20;9.70;;;3.47;;
4742;SDS011;24293;48.154;7.748;2022-09-21T05:06:47;8.17;;;2.93;;
4742;SDS011;24293;48.154;7.748;2022-09-21T05:09:13;10.67;;;3.30;;
4742;SDS011;24293;48.154;7.748;2022-09-21T05:11:58;10.60;;;3.70;;
4742;SDS011;24293;48.154;7.748;2022-09-21T05:14:25;6.17;;;3.13;;
4742;SDS011;24293;48.154;7.748;2022-09-21T05:16:51;4.40;;;3.20;;
4742;SDS011;24293;48.154;7.748;2022-09-21T05:19:17;6.10;;;4.03;;
4742;SDS011;24293;48.154;7.748;2022-09-21T05:21:44;8.70;;;3.63;;
4742;SDS011;24293;48.154;7.748;2022-09-21T05:24:10;8.77;;;3.80;;
4742;SDS011;24293;48.154;7.748;2022-09-21T05:26:37;6.00;;;3.47;;
4742;SDS011;24293;48.154;7.748;2022-09-21T05:29:05;6.30;;;3.87;;
4742;SDS011;24293;48.154;7.748;2022-09-21T05:31:37;7.33;;;4.07;;
4742;SDS011;24293;48.154;7.748;2022-09-21T05:34:06;7.63;;;3.63;;
4742;SDS011;24293;48.154;7.748;2022-09-21T05:36:41;6.33;;;4.13;;
4742;SDS011;24293;48.154;7.748;2022-09-21T05:39:10;9.73;;;4.07;;
4742;SDS011;24293;48.154;7.748;2022-09-21T05:41:37;9.57;;;3.83;;
4742;SDS011;24293;48.154;7.748;2022-09-21T05:44:06;5.30;;;3.20;;
4742;SDS011;24293;48.154;7.748;2022-09-21T05:46:34;6.30;;;3.50;;
4742;SDS011;24293;48.154;7.748;2022-09-21T05:49:03;7.27;;;4.47;;
4742;SDS011;24293;48.154;7.748;2022-09-21T05:51:32;6.30;;;4.17;;
4742;SDS011;24293;48.154;7.748;2022-09-21T05:54:01;6.50;;;3.40;;
4742;SDS011;24293;48.154;7.748;2022-09-21T05:56:32;7.00;;;3.80;;
4742;SDS011;24293;48.154;7.748;2022-09-21T05:59:04;7.50;;;3.87;;
4742;SDS011;24293;48.154;7.748;2022-09-21T06:01:40;6.00;;;3.73;;
4742;SDS011;24293;48.154;7.748;2022-09-21T06:04:10;8.37;;;3.83;;
4742;SDS011;24293;48.154;7.748;2022-09-21T06:06:37;6.93;;;4.00;;
4742;SDS011;24293;48.154;7.748;2022-09-21T06:09:03;12.50;;;3.77;;
4742;SDS011;24293;48.154;7.748;2022-09-21T06:11:30;10.83;;;4.50;;
4742;SDS011;24293;48.154;7.748;2022-09-21T06:13:56;18.57;;;4.70;;
4742;SDS011;24293;48.154;7.748;2022-09-21T06:16:23;7.57;;;4.50;;
4742;SDS011;24293;48.154;7.748;2022-09-21T06:18:51;10.50;;;4.17;;
4742;SDS011;24293;48.154;7.748;2022-09-21T06:21:17;6.30;;;4.17;;
4742;SDS011;24293;48.154;7.748;2022-09-21T06:23:44;9.10;;;4.00;;
4742;SDS011;24293;48.154;7.748;2022-09-21T06:26:10;11.70;;;5.23;;
4742;SDS011;24293;48.154;7.748;2022-09-21T06:28:37;13.70;;;5.57;;
4742;SDS011;24293;48.154;7.748;2022-09-21T06:31:03;11.20;;;6.80;;
4742;SDS011;24293;48.154;7.748;2022-09-21T06:33:30;8.83;;;5.90;;
4742;SDS011;24293;48.154;7.748;2022-09-21T06:35:58;7.93;;;4.80;;
4742;SDS011;24293;48.154;7.748;2022-09-21T06:38:26;11.97;;;5.00;;
4742;SDS011;24293;48.154;7.748;2022-09-21T06:40:53;8.23;;;4.23;;
4742;SDS011;24293;48.154;7.748;2022-09-21T06:43:19;8.20;;;4.97;;
4742;SDS011;24293;48.154;7.748;2022-09-21T06:45:51;8.03;;;4.40;;
4742;SDS011;24293;48.154;7.748;2022-09-21T06:48:18;7.97;;;4.77;;
4742;SDS011;24293;48.154;7.748;2022-09-21T06:50:44;15.20;;;5.70;;
4742;SDS011;24293;48.154;7.748;2022-09-21T06:53:12;13.73;;;4.63;;
4742;SDS011;24293;48.154;7.748;2022-09-21T06:55:38;14.20;;;5.90;;
4742;SDS011;24293;48.154;7.748;2022-09-21T06:58:05;12.13;;;5.20;;
4742;SDS011;24293;48.154;7.748;2022-09-21T07:00:31;8.83;;;4.77;;
4742;SDS011;24293;48.154;7.748;2022-09-21T07:02:58;10.20;;;5.20;;
4742;SDS011;24293;48.154;7.748;2022-09-21T07:05:25;13.47;;;5.87;;
4742;SDS011;24293;48.154;7.748;2022-09-21T07:07:55;11.07;;;6.30;;
4742;SDS011;24293;48.154;7.748;2022-09-21T07:10:23;16.80;;;6.23;;
4742;SDS011;24293;48.154;7.748;2022-09-21T07:12:49;9.20;;;5.47;;
4742;SDS011;24293;48.154;7.748;2022-09-21T07:15:16;10.37;;;5.50;;
4742;SDS011;24293;48.154;7.748;2022-09-21T07:17:43;11.97;;;6.00;;
4742;SDS011;24293;48.154;7.748;2022-09-21T07:20:10;11.97;;;7.07;;
4742;SDS011;24293;48.154;7.748;2022-09-21T07:22:36;13.53;;;6.87;;
4742;SDS011;24293;48.154;7.748;2022-09-21T07:25:03;13.70;;;6.20;;
4742;SDS011;24293;48.154;7.748;2022-09-21T07:27:32;14.77;;;6.93;;
4742;SDS011;24293;48.154;7.748;2022-09-21T07:29:58;17.47;;;7.73;;
4742;SDS011;24293;48.154;7.748;2022-09-21T07:32:25;13.80;;;7.33;;
4742;SDS011;24293;48.154;7.748;2022-09-21T07:34:51;13.87;;;6.80;;
4742;SDS011;24293;48.154;7.748;2022-09-21T07:37:20;12.20;;;6.73;;
4742;SDS011;24293;48.154;7.748;2022-09-21T07:39:48;12.23;;;6.37;;
4742;SDS011;24293;48.154;7.748;2022-09-21T07:42:14;11.57;;;7.50;;
4742;SDS011;24293;48.154;7.748;2022-09-21T07:44:43;12.03;;;7.20;;
4742;SDS011;24293;48.154;7.748;2022-09-21T07:47:10;10.73;;;6.47;;
4742;SDS011;24293;48.154;7.748;2022-09-21T07:49:37;70.83;;;14.97;;
4742;SDS011;24293;48.154;7.748;2022-09-21T07:52:04;16.57;;;7.60;;
4742;SDS011;24293;48.154;7.748;2022-09-21T07:54:31;9.90;;;6.57;;
4742;SDS011;24293;48.154;7.748;2022-09-21T07:56:58;13.93;;;6.87;;
4742;SDS011;24293;48.154;7.748;2022-09-21T07:59:43;14.10;;;6.80;;
4742;SDS011;24293;48.154;7.748;2022-09-21T08:02:10;12.97;;;7.40;;
4742;SDS011;24293;48.154;7.748;2022-09-21T08:04:36;13.03;;;6.90;;
4742;SDS011;24293;48.154;7.748;2022-09-21T08:07:03;16.00;;;7.03;;
4742;SDS011;24293;48.154;7.748;2022-09-21T08:09:30;10.73;;;7.00;;
4742;SDS011;24293;48.154;7.748;2022-09-21T08:11:57;11.87;;;7.33;;
4742;SDS011;24293;48.154;7.748;2022-09-21T08:14:25;13.90;;;6.83;;
4742;SDS011;24293;48.154;7.748;2022-09-21T08:16:54;15.23;;;6.20;;
4742;SDS011;24293;48.154;7.748;2022-09-21T08:19:21;11.67;;;6.70;;
4742;SDS011;24293;48.154;7.748;2022-09-21T08:21:49;10.87;;;7.07;;
4742;SDS011;24293;48.154;7.748;2022-09-21T08:24:16;12.47;;;6.43;;
4742;SDS011;24293;48.154;7.748;2022-09-21T08:26:42;11.27;;;6.40;;
4742;SDS011;24293;48.154;7.748;2022-09-21T08:29:09;9.43;;;6.30;;
4742;SDS011;24293;48.154;7.748;2022-09-21T08:31:36;15.27;;;6.00;;
4742;SDS011;24293;48.154;7.748;2022-09-21T08:34:04;10.97;;;5.47;;
4742;SDS011;24293;48.154;7.748;2022-09-21T08:36:30;14.17;;;6.60;;
4742;SDS011;24293;48.154;7.748;2022-09-21T08:38:58;10.83;;;5.73;;
4742;SDS011;24293;48.154;7.748;2022-09-21T08:41:26;17.23;;;6.73;;
4742;SDS011;24293;48.154;7.748;2022-09-21T08:43:57;9.70;;;6.00;;
4742;SDS011;24293;48.154;7.748;2022-09-21T08:46:26;10.77;;;5.73;;
4742;SDS011;24293;48.154;7.748;2022-09-21T08:48:54;17.07;;;6.43;;
4742;SDS011;24293;48.154;7.748;2022-09-21T08:51:23;9.43;;;5.33;;
4742;SDS011;24293;48.154;7.748;2022-09-21T08:53:51;12.80;;;4.70;;
4742;SDS011;24293;48.154;7.748;2022-09-21T08:56:19;7.47;;;4.70;;
4742;SDS011;24293;48.154;7.748;2022-09-21T08:58:45;7.00;;;4.40;;
4742;SDS011;24293;48.154;7.748;2022-09-21T09:01:21;8.80;;;4.83;;
4742;SDS011;24293;48.154;7.748;2022-09-21T09:03:57;6.93;;;3.53;;
4742;SDS011;24293;48.154;7.748;2022-09-21T09:06:28;6.80;;;3.70;;
4742;SDS011;24293;48.154;7.748;2022-09-21T09:08:59;7.13;;;3.80;;
4742;SDS011;24293;48.154;7.748;2022-09-21T09:11:32;6.83;;;3.30;;
4742;SDS011;24293;48.154;7.748;2022-09-21T09:14:09;5.20;;;2.87;;
4742;SDS011;24293;48.154;7.748;2022-09-21T09:16:41;4.97;;;3.10;;
4742;SDS011;24293;48.154;7.748;2022-09-21T09:19:14;8.77;;;3.33;;
4742;SDS011;24293;48.154;7.748;2022-09-21T09:21:45;11.30;;;3.63;;
4742;SDS011;24293;48.154;7.748;2022-09-21T09:24:14;8.17;;;3.67;;
4742;SDS011;24293;48.154;7.748;2022-09-21T09:26:42;6.80;;;3.10;;
4742;SDS011;24293;48.154;7.748;2022-09-21T09:29:11;7.53;;;3.77;;
4742;SDS011;24293;48.154;7.748;2022-09-21T09:31:41;7.73;;;4.20;;
4742;SDS011;24293;48.154;7.748;2022-09-21T09:34:08;7.03;;;3.57;;
4742;SDS011;24293;48.154;7.748;2022-09-21T09:36:36;5.03;;;3.40;;
4742;SDS011;24293;48.154;7.748;2022-09-21T09:39:09;5.50;;;3.17;;
4742;SDS011;24293;48.154;7.748;2022-09-21T09:41:46;6.97;;;3.77;;
4742;SDS011;24293;48.154;7.748;2022-09-21T09:44:22;8.53;;;3.57;;
4742;SDS011;24293;48.154;7.748;2022-09-21T09:46:54;5.10;;;3.20;;
4742;SDS011;24293;48.154;7.748;2022-09-21T09:49:27;8.67;;;3.30;;
4742;SDS011;24293;48.154;7.748;2022-09-21T09:51:58;9.07;;;3.37;;
4742;SDS011;24293;48.154;7.748;2022-09-21T09:54:26;4.10;;;3.00;;
4742;SDS011;24293;48.154;7.748;2022-09-21T09:56:55;7.33;;;2.93;;
4742;SDS011;24293;48.154;7.748;2022-09-21T09:59:23;5.17;;;2.60;;
4742;SDS011;24293;48.154;7.748;2022-09-21T10:01:58;5.50;;;2.50;;
4742;SDS011;24293;48.154;7.748;2022-09-21T10:04:24;7.20;;;2.73;;
4742;SDS011;24293;48.154;7.748;2022-09-21T10:06:51;5.03;;;2.67;;
4742;SDS011;24293;48.154;7.748;2022-09-21T10:09:21;8.13;;;3.20;;
4742;SDS011;24293;48.154;7.748;2022-09-21T10:11:50;5.40;;;2.50;;
4742;SDS011;24293;48.154;7.748;2022-09-21T10:14:17;5.30;;;2.50;;
4742;SDS011;24293;48.154;7.748;2022-09-21T10:16:44;5.10;;;2.60;;
4742;SDS011;24293;48.154;7.748;2022-09-21T10:19:13;5.27;;;2.97;;
4742;SDS011;24293;48.154;7.748;2022-09-21T10:21:40;6.97;;;2.50;;
4742;SDS011;24293;48.154;7.748;2022-09-21T10:24:13;5.20;;;2.50;;
4742;SDS011;24293;48.154;7.748;2022-09-21T10:26:41;6.40;;;2.30;;
4742;SDS011;24293;48.154;7.748;2022-09-21T10:29:17;4.07;;;2.73;;
4742;SDS011;24293;48.154;7.748;2022-09-21T10:31:52;6.23;;;2.10;;
4742;SDS011;24293;48.154;7.748;2022-09-21T10:34:19;4.50;;;2.50;;
4742;SDS011;24293;48.154;7.748;2022-09-21T10:36:48;3.93;;;2.50;;
4742;SDS011;24293;48.154;7.748;2022-09-21T10:41:52;7.37;;;2.83;;
4742;SDS011;24293;48.154;7.748;2022-09-21T10:44:21;6.93;;;2.03;;
4742;SDS011;24293;48.154;7.748;2022-09-21T10:46:48;4.40;;;2.37;;
4742;SDS011;24293;48.154;7.748;2022-09-21T10:49:16;4.00;;;2.30;;
4742;SDS011;24293;48.154;7.748;2022-09-21T10:51:45;6.07;;;2.20;;
4742;SDS011;24293;48.154;7.748;2022-09-21T10:54:14;7.40;;;2.33;;
4742;SDS011;24293;48.154;7.748;2022-09-21T10:56:48;6.93;;;2.10;;
4742;SDS011;24293;48.154;7.748;2022-09-21T10:59:21;3.70;;;2.00;;
4742;SDS011;24293;48.154;7.748;2022-09-21T11:01:48;6.20;;;2.40;;
4742;SDS011;24293;48.154;7.748;2022-09-21T11:04:17;7.40;;;2.40;;
4742;SDS011;24293;48.154;7.748;2022-09-21T11:06:45;5.03;;;1.90;;
4742;SDS011;24293;48.154;7.748;2022-09-21T11:09:13;6.37;;;2.00;;
4742;SDS011;24293;48.154;7.748;2022-09-21T11:11:44;5.70;;;2.00;;
4742;SDS011;24293;48.154;7.748;2022-09-21T11:14:17;2.93;;;2.03;;
4742;SDS011;24293;48.154;7.748;2022-09-21T11:16:49;8.77;;;2.33;;
4742;SDS011;24293;48.154;7.748;2022-09-21T11:19:18;3.90;;;1.93;;
4742;SDS011;24293;48.154;7.748;2022-09-21T11:21:46;2.63;;;1.90;;
4742;SDS011;24293;48.154;7.748;2022-09-21T11:24:18;6.60;;;2.00;;
4742;SDS011;24293;48.154;7.748;2022-09-21T11:26:45;3.23;;;1.73;;
4742;SDS011;24293;48.154;7.748;2022-09-21T11:29:17;5.30;;;2.10;;
4742;SDS011;24293;48.154;7.748;2022-09-21T11:31:55;4.50;;;1.93;;
4742;SDS011;24293;48.154;7.748;2022-09-21T11:34:46;4.93;;;2.30;;
4742;SDS011;24293;48.154;7.748;2022-09-21T11:37:21;4.47;;;2.10;;
4742;SDS011;24293;48.154;7.748;2022-09-21T11:39:56;3.17;;;1.53;;
4742;SDS011;24293;48.154;7.748;2022-09-21T11:42:30;4.97;;;1.90;;
4742;SDS011;24293;48.154;7.748;2022-09-21T11:45:01;8.00;;;2.77;;
4742;SDS011;24293;48.154;7.748;2022-09-21T11:47:36;4.40;;;1.67;;
4742;SDS011;24293;48.154;7.748;2022-09-21T11:50:08;3.90;;;1.70;;
4742;SDS011;24293;48.154;7.748;2022-09-21T11:52:41;5.00;;;1.77;;
4742;SDS011;24293;48.154;7.748;2022-09-21T11:58:03;3.60;;;1.57;;
4742;SDS011;24293;48.154;7.748;2022-09-21T12:00:35;3.73;;;1.83;;
4742;SDS011;24293;48.154;7.748;2022-09-21T12:03:15;3.30;;;1.50;;
4742;SDS011;24293;48.154;7.748;2022-09-21T12:05:47;4.27;;;1.57;;
4742;SDS011;24293;48.154;7.748;2022-09-21T12:08:24;4.80;;;1.47;;
4742;SDS011;24293;48.154;7.748;2022-09-21T12:10:55;2.60;;;1.43;;
4742;SDS011;24293;48.154;7.748;2022-09-21T12:13:29;3.63;;;1.33;;
4742;SDS011;24293;48.154;7.748;2022-09-21T12:16:00;3.47;;;1.60;;
4742;SDS011;24293;48.154;7.748;2022-09-21T12:18:31;2.00;;;1.20;;
4742;SDS011;24293;48.154;7.748;2022-09-21T12:21:00;3.80;;;1.33;;
4742;SDS011;24293;48.154;7.748;2022-09-21T12:23:31;3.13;;;1.27;;
4742;SDS011;24293;48.154;7.748;2022-09-21T12:25:59;3.77;;;1.40;;
4742;SDS011;24293;48.154;7.748;2022-09-21T12:28:27;3.70;;;1.20;;
4742;SDS011;24293;48.154;7.748;2022-09-21T12:30:56;3.37;;;1.40;;
4742;SDS011;24293;48.154;7.748;2022-09-21T12:33:25;4.07;;;1.60;;
4742;SDS011;24293;48.154;7.748;2022-09-21T12:35:59;3.30;;;1.40;;
4742;SDS011;24293;48.154;7.748;2022-09-21T12:38:29;3.17;;;1.43;;
4742;SDS011;24293;48.154;7.748;2022-09-21T12:40:58;3.17;;;1.40;;
4742;SDS011;24293;48.154;7.748;2022-09-21T12:43:31;5.27;;;1.50;;
4742;SDS011;24293;48.154;7.748;2022-09-21T12:46:00;2.40;;;1.40;;
4742;SDS011;24293;48.154;7.748;2022-09-21T12:48:29;4.67;;;1.50;;
4742;SDS011;24293;48.154;7.748;2022-09-21T12:50:57;3.23;;;1.33;;
4742;SDS011;24293;48.154;7.748;2022-09-21T12:53:28;3.10;;;1.20;;
4742;SDS011;24293;48.154;7.748;2022-09-21T12:55:57;3.37;;;1.53;;
4742;SDS011;24293;48.154;7.748;2022-09-21T12:58:29;7.03;;;1.50;;
4742;SDS011;24293;48.154;7.748;2022-09-21T13:01:02;4.90;;;2.07;;
4742;SDS011;24293;48.154;7.748;2022-09-21T13:03:32;2.73;;;1.50;;
4742;SDS011;24293;48.154;7.748;2022-09-21T13:06:06;6.87;;;1.87;;
4742;SDS011;24293;48.154;7.748;2022-09-21T13:08:40;5.63;;;2.57;;
4742;SDS011;24293;48.154;7.748;2022-09-21T13:11:08;3.10;;;1.23;;
4742;SDS011;24293;48.154;7.748;2022-09-21T13:13:36;7.73;;;1.60;;
4742;SDS011;24293;48.154;7.748;2022-09-21T13:16:04;3.07;;;1.47;;
4742;SDS011;24293;48.154;7.748;2022-09-21T13:18:32;5.37;;;2.90;;
4742;SDS011;24293;48.154;7.748;2022-09-21T13:20:59;4.27;;;2.40;;
4742;SDS011;24293;48.154;7.748;2022-09-21T13:23:26;4.70;;;2.00;;
4742;SDS011;24293;48.154;7.748;2022-09-21T13:26:00;4.37;;;2.10;;
4742;SDS011;24293;48.154;7.748;2022-09-21T13:31:27;3.97;;;2.30;;
4742;SDS011;24293;48.154;7.748;2022-09-21T13:36:39;3.00;;;1.20;;
4742;SDS011;24293;48.154;7.748;2022-09-21T13:39:14;1.63;;;1.10;;
4742;SDS011;24293;48.154;7.748;2022-09-21T13:41:42;3.77;;;1.50;;
4742;SDS011;24293;48.154;7.748;2022-09-21T13:44:17;4.80;;;1.80;;
4742;SDS011;24293;48.154;7.748;2022-09-21T13:46:45;6.47;;;1.70;;
4742;SDS011;24293;48.154;7.748;2022-09-21T13:49:14;4.53;;;2.40;;
4742;SDS011;24293;48.154;7.748;2022-09-21T13:51:49;3.93;;;1.23;;
4742;SDS011;24293;48.154;7.748;2022-09-21T13:54:16;3.07;;;1.13;;
4742;SDS011;24293;48.154;7.748;2022-09-21T13:56:44;3.07;;;1.77;;
4742;SDS011;24293;48.154;7.748;2022-09-21T13:59:15;5.70;;;2.50;;
4742;SDS011;24293;48.154;7.748;2022-09-21T14:01:45;2.87;;;1.30;;
4742;SDS011;24293;48.154;7.748;2022-09-21T14:04:16;6.87;;;3.77;;
4742;SDS011;24293;48.154;7.748;2022-09-21T14:06:44;2.00;;;1.20;;
4742;SDS011;24293;48.154;7.748;2022-09-21T14:09:17;3.97;;;2.00;;
4742;SDS011;24293;48.154;7.748;2022-09-21T14:11:49;2.10;;;1.10;;
4742;SDS011;24293;48.154;7.748;2022-09-21T14:14:20;3.00;;;1.30;;
4742;SDS011;24293;48.154;7.748;2022-09-21T14:16:55;4.30;;;1.47;;
4742;SDS011;24293;48.154;7.748;2022-09-21T14:27:36;2.07;;;1.40;;
4742;SDS011;24293;48.154;7.748;2022-09-21T14:30:14;3.20;;;1.50;;
4742;SDS011;24293;48.154;7.748;2022-09-21T14:32:44;3.50;;;1.40;;
4742;SDS011;24293;48.154;7.748;2022-09-21T14:35:12;4.57;;;1.53;;
4742;SDS011;24293;48.154;7.748;2022-09-21T14:37:44;2.07;;;1.10;;
4742;SDS011;24293;48.154;7.748;2022-09-21T14:40:15;2.87;;;1.53;;
4742;SDS011;24293;48.154;7.748;2022-09-21T14:42:44;1.90;;;1.40;;
4742;SDS011;24293;48.154;7.748;2022-09-21T14:45:13;3.83;;;1.57;;
4742;SDS011;24293;48.154;7.748;2022-09-21T14:47:51;1.50;;;1.20;;
4742;SDS011;24293;48.154;7.748;2022-09-21T14:50:30;3.07;;;1.53;;
4742;SDS011;24293;48.154;7.748;2022-09-21T14:53:04;2.10;;;1.40;;
4742;SDS011;24293;48.154;7.748;2022-09-21T14:55:41;2.23;;;1.40;;
4742;SDS011;24293;48.154;7.748;2022-09-21T14:58:16;3.20;;;1.20;;
4742;SDS011;24293;48.154;7.748;2022-09-21T15:00:45;3.00;;;1.10;;
4742;SDS011;24293;48.154;7.748;2022-09-21T15:03:37;3.23;;;1.50;;
4742;SDS011;24293;48.154;7.748;2022-09-21T15:06:10;2.43;;;1.20;;
4742;SDS011;24293;48.154;7.748;2022-09-21T15:08:52;2.00;;;1.10;;
4742;SDS011;24293;48.154;7.748;2022-09-21T15:11:41;2.57;;;1.40;;
4742;SDS011;24293;48.154;7.748;2022-09-21T15:14:21;3.57;;;1.20;;
4742;SDS011;24293;48.154;7.748;2022-09-21T15:16:50;1.87;;;0.90;;
4742;SDS011;24293;48.154;7.748;2022-09-21T15:19:20;1.80;;;1.23;;
4742;SDS011;24293;48.154;7.748;2022-09-21T15:21:48;3.40;;;1.23;;
4742;SDS011;24293;48.154;7.748;2022-09-21T15:24:17;2.37;;;1.27;;
4742;SDS011;24293;48.154;7.748;2022-09-21T15:26:44;2.30;;;1.03;;
4742;SDS011;24293;48.154;7.748;2022-09-21T15:29:16;3.10;;;1.10;;
4742;SDS011;24293;48.154;7.748;2022-09-21T15:31:46;3.40;;;1.00;;
4742;SDS011;24293;48.154;7.748;2022-09-21T15:34:13;5.50;;;1.20;;